Time;durP1;ratioP1;P1;durP2;ratioP2;P2;SDS_P1;SDS_P2;PMS_P1;PMS_P2;Temp;Humidity;BMP_temperature;BMP_pressure;BME280_temperature;BME280_humidity;BME280_pressure;Samples;Min_cycle;Max_cycle;Signal;HPM_P1;HPM_P2
2023/03/25 00:01:07;;;;;;;36.40;6.65;;;13.90;89.00;;;;;;5044960;28;20072;-55
2023/03/25 00:03:33;;;;;;;37.33;5.38;;;13.90;89.10;;;;;;5044926;28;20023;-56
2023/03/25 00:05:59;;;;;;;35.05;5.93;;;13.90;89.10;;;;;;5046163;28;20092;-56
2023/03/25 00:08:25;;;;;;;38.67;5.40;;;13.90;89.20;;;;;;5044952;28;20021;-56
2023/03/25 00:10:52;;;;;;;34.78;5.75;;;13.90;89.20;;;;;;5044812;28;20048;-55
2023/03/25 00:13:17;;;;;;;33.50;5.22;;;13.90;89.30;;;;;;5044812;28;20079;-54
2023/03/25 00:15:46;;;;;;;24.27;4.45;;;13.90;89.30;;;;;;5046001;28;20034;-55
2023/03/25 00:18:12;;;;;;;27.65;5.03;;;13.80;89.40;;;;;;5045883;28;20052;-55
2023/03/25 00:20:39;;;;;;;25.75;4.38;;;13.80;89.50;;;;;;5044726;28;20470;-55
2023/03/25 00:23:08;;;;;;;25.00;4.60;;;13.80;89.60;;;;;;5044721;28;20385;-55
2023/03/25 00:25:34;;;;;;;22.60;4.07;;;13.70;89.70;;;;;;5045833;28;20029;-55
2023/03/25 00:27:59;;;;;;;28.80;4.35;;;13.70;89.90;;;;;;5044580;28;20040;-55
2023/03/25 00:30:25;;;;;;;27.42;3.67;;;13.70;89.90;;;;;;5044386;28;20093;-55
2023/03/25 00:32:51;;;;;;;22.27;3.35;;;13.60;89.80;;;;;;5044367;28;20040;-55
2023/03/25 00:35:20;;;;;;;14.93;3.20;;;13.60;89.70;;;;;;5044617;28;20029;-55
2023/03/25 00:37:50;;;;;;;15.18;3.13;;;13.60;89.60;;;;;;5044661;28;20037;-55
2023/03/25 00:40:16;;;;;;;20.33;3.35;;;13.60;89.60;;;;;;5044465;28;20040;-55
2023/03/25 00:42:43;;;;;;;13.55;3.30;;;13.50;89.70;;;;;;5045772;28;20077;-55
2023/03/25 00:45:12;;;;;;;18.63;3.33;;;13.50;89.90;;;;;;5043854;28;20033;-55
2023/03/25 00:47:37;;;;;;;20.60;3.28;;;13.50;89.90;;;;;;5077518;28;20025;-55
2023/03/25 00:50:04;;;;;;;14.63;2.60;;;13.40;89.90;;;;;;5044076;28;20048;-55
2023/03/25 00:52:30;;;;;;;13.63;2.83;;;13.40;89.80;;;;;;5044030;28;20033;-55
2023/03/25 00:54:56;;;;;;;24.17;3.95;;;13.40;89.90;;;;;;5045486;28;20437;-56
2023/03/25 00:57:21;;;;;;;24.02;3.20;;;13.40;89.80;;;;;;5043931;28;20030;-55
2023/03/25 00:59:47;;;;;;;17.35;2.80;;;13.40;89.80;;;;;;5043792;28;20106;-56
2023/03/25 01:02:12;;;;;;;15.30;3.10;;;13.30;89.70;;;;;;5045398;28;20101;-56
2023/03/25 01:04:38;;;;;;;9.52;2.65;;;13.40;89.70;;;;;;5044000;28;20048;-55
2023/03/25 01:07:04;;;;;;;12.02;2.90;;;13.40;89.70;;;;;;5045343;28;20029;-56
2023/03/25 01:09:30;;;;;;;11.85;2.63;;;13.30;89.60;;;;;;5043694;28;20029;-56
2023/03/25 01:11:55;;;;;;;20.27;2.53;;;13.30;89.60;;;;;;5045038;28;20025;-56
2023/03/25 01:14:23;;;;;;;12.35;2.50;;;13.30;89.70;;;;;;5027365;28;20036;-55
2023/03/25 01:16:48;;;;;;;10.43;2.40;;;13.30;89.70;;;;;;5044934;28;20041;-55
2023/03/25 01:19:14;;;;;;;9.65;2.28;;;13.20;89.50;;;;;;5044958;28;20033;-55
2023/03/25 01:21:40;;;;;;;9.70;2.55;;;13.20;89.50;;;;;;5043625;28;20026;-56
2023/03/25 01:24:06;;;;;;;9.18;1.92;;;13.20;89.60;;;;;;5044922;28;20045;-56
2023/03/25 01:26:32;;;;;;;10.45;2.15;;;13.20;89.50;;;;;;5044925;28;20102;-55
2023/03/25 01:28:57;;;;;;;9.50;2.53;;;13.20;89.50;;;;;;5044983;28;20040;-56
2023/03/25 01:31:24;;;;;;;8.77;1.73;;;13.10;89.50;;;;;;5043215;28;20101;-56
2023/03/25 01:33:50;;;;;;;11.02;2.53;;;13.10;89.60;;;;;;5044958;28;20497;-56
2023/03/25 01:36:15;;;;;;;10.32;2.67;;;13.10;89.60;;;;;;5043328;28;20051;-56
2023/03/25 01:38:41;;;;;;;8.90;2.60;;;13.10;90.00;;;;;;5059828;28;20087;-55
2023/03/25 01:41:07;;;;;;;8.50;2.10;;;13.10;89.60;;;;;;5043429;28;20014;-56
2023/03/25 01:43:33;;;;;;;6.75;2.17;;;13.00;89.60;;;;;;5044706;28;20033;-56
2023/03/25 01:45:59;;;;;;;10.77;2.30;;;13.00;89.50;;;;;;5043519;28;20040;-56
2023/03/25 01:48:31;;;;;;;9.30;2.10;;;13.00;89.50;;;;;;5026622;28;20526;-55
2023/03/25 01:51:19;;;;;;;11.57;2.35;;;13.00;89.50;;;;;;5043161;28;20029;-56
2023/03/25 01:53:45;;;;;;;10.25;2.47;;;13.00;89.50;;;;;;5043409;28;20042;-56
2023/03/25 01:56:12;;;;;;;7.97;2.50;;;13.00;89.40;;;;;;5043171;28;20056;-56
2023/03/25 01:58:38;;;;;;;6.50;2.35;;;13.00;89.30;;;;;;5045717;28;20068;-55
2023/03/25 02:01:03;;;;;;;4.03;1.98;;;13.00;89.30;;;;;;5047266;28;20025;-56
2023/03/25 02:03:29;;;;;;;7.25;2.08;;;13.00;89.20;;;;;;5047131;28;20029;-56
2023/03/25 02:06:06;;;;;;;6.60;2.15;;;13.00;89.20;;;;;;5047100;28;20083;-56
2023/03/25 02:08:36;;;;;;;9.73;2.45;;;13.00;89.30;;;;;;5047067;28;20107;-56
2023/03/25 02:11:02;;;;;;;6.38;1.95;;;13.00;89.20;;;;;;5047286;28;20144;-55
2023/03/25 02:13:27;;;;;;;14.88;1.98;;;13.00;89.20;;;;;;5048549;28;20049;-54
2023/03/25 02:16:21;;;;;;;5.40;2.08;;;12.90;89.20;;;;;;5047027;28;20034;-55
2023/03/25 02:18:46;;;;;;;6.78;2.50;;;12.90;89.30;;;;;;5047249;28;20116;-55
2023/03/25 02:21:45;;;;;;;5.45;2.20;;;12.90;89.40;;;;;;5048067;28;20451;-55
2023/03/25 02:24:45;;;;;;;7.47;2.78;;;12.90;89.40;;;;;;5047470;28;20033;-55
2023/03/25 02:27:58;;;;;;;6.03;2.55;;;12.90;89.60;;;;;;5047186;28;20485;-55
2023/03/25 02:30:45;;;;;;;5.85;2.25;;;12.90;89.80;;;;;;5045661;28;20033;-55
2023/03/25 02:33:55;;;;;;;6.70;2.67;;;12.90;89.90;;;;;;5045719;28;20085;-55
2023/03/25 02:36:59;;;;;;;7.05;2.25;;;12.90;90.00;;;;;;5045741;28;20365;-55
2023/03/25 02:39:34;;;;;;;4.97;2.00;;;12.80;90.10;;;;;;5047069;28;20049;-56
2023/03/25 02:42:15;;;;;;;6.07;2.10;;;12.90;90.10;;;;;;5079698;28;20048;-56
2023/03/25 02:44:44;;;;;;;4.32;2.30;;;12.90;90.00;;;;;;5063333;28;20063;-55
2023/03/25 02:47:16;;;;;;;10.77;2.55;;;12.90;90.00;;;;;;5063476;28;20103;-55
2023/03/25 02:49:47;;;;;;;5.80;2.30;;;12.90;90.10;;;;;;5046581;28;20033;-55
2023/03/25 02:52:17;;;;;;;5.50;2.33;;;12.90;90.10;;;;;;5028873;28;20033;-56
2023/03/25 02:54:44;;;;;;;5.57;2.22;;;12.90;90.10;;;;;;5046443;28;20033;-55
2023/03/25 02:57:10;;;;;;;5.22;2.15;;;12.90;90.20;;;;;;5045224;28;20029;-55
2023/03/25 02:59:37;;;;;;;5.03;2.38;;;12.90;90.20;;;;;;5044952;28;20038;-56
2023/03/25 03:02:06;;;;;;;3.65;2.15;;;12.90;90.20;;;;;;5028471;28;20018;-56
2023/03/25 03:04:32;;;;;;;3.42;1.80;;;12.90;90.30;;;;;;5044946;28;20033;-55
2023/03/25 03:06:58;;;;;;;3.60;2.00;;;12.80;90.20;;;;;;5044746;28;20034;-55
2023/03/25 03:09:33;;;;;;;9.32;2.15;;;12.80;90.30;;;;;;5044560;28;20063;-55
2023/03/25 03:12:06;;;;;;;;;;;12.80;90.30;;;;;;5045231;28;20117;-55
2023/03/25 03:14:52;;;;;;;2.95;1.48;;;12.80;90.40;;;;;;5078169;28;19909;-55
2023/03/25 03:17:18;;;;;;;5.03;1.67;;;12.70;90.40;;;;;;5044895;28;20053;-55
2023/03/25 03:19:50;;;;;;;4.03;1.50;;;12.70;90.40;;;;;;5046041;28;20033;-55
2023/03/25 03:22:20;;;;;;;3.97;1.60;;;12.70;90.30;;;;;;5044675;28;20029;-55
2023/03/25 03:24:50;;;;;;;2.47;1.33;;;12.60;90.20;;;;;;5044945;28;20105;-55
2023/03/25 03:27:27;;;;;;;6.38;1.40;;;12.60;90.20;;;;;;5044415;28;20036;-55
2023/03/25 03:30:03;;;;;;;2.40;1.10;;;12.50;90.20;;;;;;5044509;28;20470;-55
2023/03/25 03:32:34;;;;;;;2.72;1.30;;;12.50;90.20;;;;;;5061206;28;20032;-55
2023/03/25 03:35:06;;;;;;;4.10;1.10;;;12.50;90.40;;;;;;5044127;28;20044;-55
2023/03/25 03:37:35;;;;;;;2.20;0.90;;;12.50;90.10;;;;;;5061034;28;20033;-55
2023/03/25 03:40:01;;;;;;;1.20;0.68;;;12.40;90.00;;;;;;5044225;28;20064;-55
2023/03/25 03:42:31;;;;;;;4.68;0.98;;;12.40;89.70;;;;;;5044818;28;20022;-55
2023/03/25 03:45:02;;;;;;;4.85;0.90;;;12.30;89.60;;;;;;5027849;28;20048;-55
2023/03/25 03:47:30;;;;;;;5.47;0.80;;;12.20;89.60;;;;;;5044201;28;20470;-55
2023/03/25 03:50:17;;;;;;;2.65;0.73;;;12.10;89.50;;;;;;5044193;28;20028;-55
2023/03/25 03:52:50;;;;;;;2.63;0.70;;;12.10;89.50;;;;;;4994320;28;1056144;-55
2023/03/25 03:55:38;;;;;;;1.65;0.70;;;12.10;89.40;;;;;;5045528;28;20465;-55
2023/03/25 03:58:14;;;;;;;1.58;0.47;;;12.00;89.30;;;;;;5044994;28;20056;-55
2023/03/25 04:01:08;;;;;;;0.73;0.45;;;12.00;89.20;;;;;;5045367;28;20101;-55
2023/03/25 04:03:41;;;;;;;2.20;0.82;;;11.90;89.00;;;;;;5044891;28;20109;-55
2023/03/25 04:06:12;;;;;;;1.65;0.50;;;11.90;89.10;;;;;;5045015;28;20131;-55
2023/03/25 04:08:57;;;;;;;2.15;1.15;;;11.90;89.10;;;;;;5028634;28;20033;-55
2023/03/25 04:11:32;;;;;;;1.50;1.30;;;11.90;89.10;;;;;;5044854;28;20030;-55
2023/03/25 04:13:58;;;;;;;12.23;2.35;;;11.90;89.20;;;;;;5044948;28;20029;-55
2023/03/25 04:16:24;;;;;;;22.35;2.67;;;11.80;89.00;;;;;;5044775;28;20045;-55
2023/03/25 04:18:52;;;;;;;12.90;2.45;;;11.80;89.00;;;;;;5044924;28;20029;-55
2023/03/25 04:21:18;;;;;;;15.68;3.20;;;11.80;89.00;;;;;;5044060;28;20036;-55
2023/03/25 04:23:45;;;;;;;20.67;3.03;;;11.80;89.10;;;;;;5028102;28;20032;-55
2023/03/25 04:26:12;;;;;;;15.90;3.08;;;11.80;89.20;;;;;;5077817;28;20057;-55
2023/03/25 04:28:40;;;;;;;26.25;3.40;;;11.80;89.10;;;;;;5044707;28;20033;-55
2023/03/25 04:31:14;;;;;;;24.08;3.08;;;11.80;89.00;;;;;;5044481;28;20021;-55
2023/03/25 04:33:45;;;;;;;11.20;2.70;;;11.80;88.90;;;;;;5044833;28;20037;-55
2023/03/25 04:36:12;;;;;;;12.10;2.25;;;11.80;88.80;;;;;;5044602;28;20029;-55
2023/03/25 04:38:39;;;;;;;10.85;2.08;;;11.80;88.70;;;;;;5044474;28;20037;-55
2023/03/25 04:41:05;;;;;;;25.33;2.60;;;11.80;88.70;;;;;;5044555;28;20459;-55
2023/03/25 04:43:31;;;;;;;14.35;2.17;;;11.80;88.60;;;;;;5045715;28;20067;-56
2023/03/25 04:45:58;;;;;;;28.85;4.28;;;11.80;88.70;;;;;;5044269;28;20013;-55
2023/03/25 04:48:28;;;;;;;26.60;3.38;;;11.70;88.60;;;;;;5044430;28;20033;-56
2023/03/25 04:50:54;;;;;;;12.70;3.10;;;11.70;88.60;;;;;;5044779;28;20037;-55
2023/03/25 04:53:20;;;;;;;14.77;2.42;;;11.70;88.60;;;;;;5045942;28;20037;-56
2023/03/25 04:55:48;;;;;;;15.82;2.17;;;11.70;88.60;;;;;;5046668;28;20030;-55
2023/03/25 04:58:14;;;;;;;8.45;2.15;;;11.70;88.50;;;;;;5044309;28;20093;-56
2023/03/25 05:00:40;;;;;;;11.50;2.17;;;11.70;88.50;;;;;;5060734;28;20049;-56
2023/03/25 05:03:08;;;;;;;9.10;1.85;;;11.70;88.50;;;;;;5027387;28;20097;-55
2023/03/25 05:05:34;;;;;;;8.80;2.10;;;11.60;88.50;;;;;;5044032;28;20097;-55
2023/03/25 05:08:00;;;;;;;11.98;1.80;;;11.60;88.60;;;;;;5027414;28;20055;-56
2023/03/25 05:10:28;;;;;;;7.85;1.83;;;11.60;88.70;;;;;;5043628;28;20056;-55
2023/03/25 05:13:01;;;;;;;14.55;2.65;;;11.60;88.80;;;;;;5043814;28;20050;-55
2023/03/25 05:15:28;;;;;;;9.00;1.67;;;11.50;88.80;;;;;;5043929;28;20079;-55
2023/03/25 05:17:54;;;;;;;8.23;1.40;;;11.50;88.80;;;;;;5044899;28;20076;-55
2023/03/25 05:20:21;;;;;;;12.18;2.10;;;11.50;88.80;;;;;;5043660;28;20464;-56
2023/03/25 05:22:46;;;;;;;9.55;1.95;;;11.50;88.80;;;;;;5045116;28;20038;-55
2023/03/25 05:25:12;;;;;;;14.32;1.92;;;11.50;88.80;;;;;;5043719;28;20028;-55
2023/03/25 05:27:37;;;;;;;6.00;1.27;;;11.60;89.00;;;;;;5076791;28;20079;-55
2023/03/25 05:30:04;;;;;;;12.63;1.90;;;11.50;89.00;;;;;;5043631;28;20029;-55
2023/03/25 05:32:32;;;;;;;4.75;1.40;;;11.50;88.90;;;;;;5043262;28;20259;-55
2023/03/25 05:35:00;;;;;;;7.68;1.52;;;11.50;89.10;;;;;;5027298;28;20021;-55
2023/03/25 05:37:26;;;;;;;9.73;2.03;;;11.50;89.30;;;;;;5043296;28;20091;-55
2023/03/25 05:39:52;;;;;;;9.20;1.65;;;11.50;89.40;;;;;;5043673;28;20029;-55
2023/03/25 05:42:21;;;;;;;9.77;1.60;;;11.50;90.00;;;;;;5043335;28;20021;-55
2023/03/25 05:44:50;;;;;;;9.10;1.60;;;11.50;89.50;;;;;;5043295;28;20039;-56
2023/03/25 05:47:19;;;;;;;7.95;1.45;;;11.50;89.50;;;;;;5044915;28;20407;-55
2023/03/25 05:49:45;;;;;;;9.75;1.55;;;11.50;89.40;;;;;;5043360;28;20030;-55
2023/03/25 05:52:10;;;;;;;16.50;1.63;;;11.50;89.40;;;;;;5043319;28;20045;-55
2023/03/25 05:54:40;;;;;;;5.50;1.38;;;11.50;89.40;;;;;;5043194;28;20041;-56
2023/03/25 05:57:07;;;;;;;6.95;1.20;;;11.50;89.40;;;;;;5044731;28;20112;-55
2023/03/25 05:59:33;;;;;;;7.72;1.42;;;11.50;89.50;;;;;;5043335;28;20029;-55
2023/03/25 06:01:59;;;;;;;11.90;1.77;;;11.50;89.50;;;;;;5043025;28;20044;-55
2023/03/25 06:04:25;;;;;;;3.67;1.23;;;11.50;89.60;;;;;;5076503;28;20108;-55
2023/03/25 06:06:50;;;;;;;13.88;1.63;;;11.50;89.70;;;;;;5043087;28;20390;-55
2023/03/25 06:09:16;;;;;;;5.30;1.33;;;11.50;89.60;;;;;;5044584;28;20025;-55
2023/03/25 06:11:42;;;;;;;8.77;1.23;;;11.50;89.70;;;;;;5044646;28;20037;-55
2023/03/25 06:14:08;;;;;;;2.25;1.13;;;11.40;89.70;;;;;;5044675;28;20474;-55
2023/03/25 06:16:34;;;;;;;2.22;0.77;;;11.50;89.80;;;;;;5043163;28;20485;-56
2023/03/25 06:19:00;;;;;;;4.60;1.27;;;11.40;89.80;;;;;;5043054;28;20065;-56
2023/03/25 06:21:26;;;;;;;6.00;1.33;;;11.50;89.80;;;;;;5043012;28;20459;-55
2023/03/25 06:23:52;;;;;;;5.45;1.10;;;11.40;89.70;;;;;;5043041;28;20040;-55
2023/03/25 06:26:19;;;;;;;8.02;1.13;;;11.40;89.70;;;;;;5043034;28;20022;-55
2023/03/25 06:28:45;;;;;;;5.15;1.23;;;11.40;89.80;;;;;;5042968;28;20081;-55
2023/03/25 06:31:12;;;;;;;5.78;1.40;;;11.40;89.80;;;;;;5044636;28;20029;-55
2023/03/25 06:33:37;;;;;;;7.43;1.10;;;11.40;89.80;;;;;;5041293;28;20053;-55
2023/03/25 06:36:03;;;;;;;4.97;1.02;;;11.40;89.90;;;;;;5042991;28;20091;-55
2023/03/25 06:38:29;;;;;;;2.95;1.10;;;11.40;89.90;;;;;;5023524;28;20029;-55
2023/03/25 06:40:55;;;;;;;3.13;1.00;;;11.40;89.90;;;;;;5066357;28;20021;-55
2023/03/25 06:43:21;;;;;;;3.85;0.90;;;11.40;90.00;;;;;;5038589;28;20091;-56
2023/03/25 06:45:50;;;;;;;2.30;0.85;;;11.40;90.00;;;;;;5041409;28;20081;-56
2023/03/25 06:48:15;;;;;;;3.75;1.00;;;11.40;90.00;;;;;;5056691;28;20029;-55
2023/03/25 06:50:41;;;;;;;4.10;1.10;;;11.40;90.00;;;;;;5045412;28;20109;-56
2023/03/25 06:53:07;;;;;;;3.65;0.80;;;11.40;90.00;;;;;;5045794;28;20477;-55
2023/03/25 06:55:32;;;;;;;2.17;0.93;;;11.40;90.00;;;;;;5047722;28;20033;-55
2023/03/25 06:57:58;;;;;;;4.40;1.00;;;11.40;90.00;;;;;;5045423;28;20040;-56
2023/03/25 07:00:25;;;;;;;1.77;0.85;;;11.40;90.00;;;;;;5045670;28;20500;-56
2023/03/25 07:02:51;;;;;;;5.60;1.17;;;11.40;90.00;;;;;;5047168;28;20049;-55
2023/03/25 07:05:16;;;;;;;4.63;1.15;;;11.40;90.00;;;;;;5045170;28;20034;-55
2023/03/25 07:07:42;;;;;;;3.53;0.88;;;11.40;90.00;;;;;;5049026;28;20050;-59
2023/03/25 07:10:10;;;;;;;3.17;1.20;;;11.40;89.90;;;;;;5042065;28;20041;-59
2023/03/25 07:12:35;;;;;;;13.02;1.25;;;11.40;89.90;;;;;;5043677;28;20037;-59
2023/03/25 07:15:01;;;;;;;7.70;1.17;;;11.50;90.00;;;;;;5046010;28;20129;-59
2023/03/25 07:17:26;;;;;;;11.80;1.50;;;11.40;90.00;;;;;;5047418;28;20026;-59
2023/03/25 07:19:52;;;;;;;5.28;1.17;;;11.50;90.00;;;;;;5045603;28;20033;-59
2023/03/25 07:22:17;;;;;;;5.05;1.35;;;11.50;90.00;;;;;;5045856;28;20025;-59
2023/03/25 07:24:43;;;;;;;4.90;0.85;;;11.50;90.00;;;;;;5045581;28;20041;-59
2023/03/25 07:27:12;;;;;;;3.72;1.10;;;11.50;89.90;;;;;;5045668;28;20036;-59
2023/03/25 07:29:38;;;;;;;8.63;1.08;;;11.50;89.90;;;;;;5047299;28;20034;-59
2023/03/25 07:32:04;;;;;;;5.10;1.25;;;11.50;89.90;;;;;;5045586;28;20040;-59
2023/03/25 07:34:29;;;;;;;3.40;0.90;;;11.50;89.90;;;;;;5045614;28;20026;-59
2023/03/25 07:36:55;;;;;;;1.70;0.77;;;11.50;89.90;;;;;;5045587;28;20111;-59
2023/03/25 07:39:21;;;;;;;5.85;0.88;;;11.50;90.00;;;;;;5028793;28;20025;-58
2023/03/25 07:41:46;;;;;;;5.35;0.93;;;11.50;89.90;;;;;;5045446;28;20026;-59
2023/03/25 07:44:14;;;;;;;4.28;0.65;;;11.50;90.00;;;;;;5045571;28;20028;-59
2023/03/25 07:46:39;;;;;;;1.75;0.55;;;11.50;90.00;;;;;;5046675;28;20052;-59
2023/03/25 07:49:05;;;;;;;7.13;1.45;;;11.50;90.00;;;;;;5046968;28;20489;-59
2023/03/25 07:51:33;;;;;;;7.53;1.27;;;11.50;90.00;;;;;;5045077;28;20064;-59
2023/03/25 07:53:58;;;;;;;2.95;0.80;;;11.50;90.00;;;;;;5045278;28;20026;-59
2023/03/25 07:56:24;;;;;;;1.25;0.77;;;11.50;90.00;;;;;;5044186;28;20104;-59
2023/03/25 07:58:50;;;;;;;4.68;1.00;;;11.50;90.00;;;;;;5046512;28;20034;-58
2023/03/25 08:01:15;;;;;;;1.02;0.60;;;11.50;90.00;;;;;;5045087;28;20071;-59
2023/03/25 08:03:41;;;;;;;2.67;0.77;;;11.50;90.00;;;;;;5045158;28;20025;-59
2023/03/25 08:06:07;;;;;;;3.38;0.90;;;11.50;90.00;;;;;;5044935;28;20022;-59
2023/03/25 08:08:33;;;;;;;5.00;1.17;;;11.50;90.00;;;;;;5045087;28;20064;-59
2023/03/25 08:10:59;;;;;;;2.58;0.88;;;11.50;90.00;;;;;;5046322;28;20033;-59
2023/03/25 08:13:24;;;;;;;3.40;1.05;;;11.50;90.30;;;;;;5044528;28;20029;-59
2023/03/25 08:15:50;;;;;;;5.38;1.20;;;11.60;90.00;;;;;;5045078;28;20105;-59
2023/03/25 08:18:16;;;;;;;2.28;0.70;;;11.60;90.00;;;;;;5044795;28;20034;-59
2023/03/25 08:20:42;;;;;;;1.00;0.50;;;11.60;90.00;;;;;;5045910;28;20022;-59
2023/03/25 08:23:09;;;;;;;4.10;0.90;;;11.60;90.00;;;;;;5044641;28;20093;-59
2023/03/25 08:25:35;;;;;;;1.17;0.70;;;11.60;90.00;;;;;;5045855;28;20391;-59
2023/03/25 08:28:01;;;;;;;2.08;0.70;;;11.60;90.00;;;;;;5044668;28;20026;-56
2023/03/25 08:30:26;;;;;;;1.33;0.60;;;11.60;90.00;;;;;;5045926;28;20072;-55
2023/03/25 08:32:55;;;;;;;4.05;0.77;;;11.60;90.00;;;;;;5044370;28;20038;-55
2023/03/25 08:35:22;;;;;;;0.93;0.60;;;11.60;90.00;;;;;;5044650;28;20049;-55
2023/03/25 08:37:48;;;;;;;3.55;0.80;;;11.60;90.00;;;;;;5043159;28;20038;-55
2023/03/25 08:40:15;;;;;;;1.08;0.82;;;11.60;90.10;;;;;;5045223;28;20025;-55
2023/03/25 08:42:41;;;;;;;2.80;0.93;;;11.60;90.00;;;;;;5044492;28;20053;-55
2023/03/25 08:45:07;;;;;;;2.42;0.77;;;11.60;90.00;;;;;;5045844;28;20021;-55
2023/03/25 08:47:33;;;;;;;1.95;0.77;;;11.60;90.00;;;;;;5045743;28;20065;-55
2023/03/25 08:49:58;;;;;;;3.47;0.90;;;11.60;90.00;;;;;;5045382;28;20044;-55
2023/03/25 08:52:24;;;;;;;4.20;0.93;;;11.70;90.00;;;;;;5043718;28;20041;-55
2023/03/25 08:54:49;;;;;;;1.20;0.60;;;11.70;90.00;;;;;;5045909;28;20026;-56
2023/03/25 08:57:15;;;;;;;2.80;0.73;;;11.70;90.00;;;;;;5045701;28;20045;-56
2023/03/25 08:59:41;;;;;;;4.30;0.77;;;11.60;90.30;;;;;;5044101;28;20030;-55
2023/03/25 09:02:08;;;;;;;1.27;0.65;;;11.70;90.00;;;;;;5043952;28;20116;-55
2023/03/25 09:04:33;;;;;;;2.67;0.60;;;11.70;90.10;;;;;;5041568;28;20051;-55
2023/03/25 09:06:59;;;;;;;2.65;1.05;;;11.70;90.10;;;;;;5042930;28;20026;-55
2023/03/25 09:09:25;;;;;;;3.05;1.08;;;11.70;90.10;;;;;;5035092;28;20132;-56
2023/03/25 09:11:50;;;;;;;1.52;0.80;;;11.70;90.10;;;;;;5038835;28;20051;-55
2023/03/25 09:14:16;;;;;;;4.80;1.10;;;11.60;90.20;;;;;;5053137;28;20089;-55
2023/03/25 09:16:41;;;;;;;3.38;1.00;;;11.70;90.20;;;;;;5036598;28;20034;-55
2023/03/25 09:19:07;;;;;;;2.33;0.80;;;11.60;90.30;;;;;;5056689;28;20030;-55
2023/03/25 09:21:33;;;;;;;3.03;1.00;;;11.70;90.30;;;;;;5040327;28;20065;-56
2023/03/25 09:23:58;;;;;;;3.13;0.90;;;11.70;90.30;;;;;;5025467;28;20128;-55
2023/03/25 09:26:25;;;;;;;3.75;1.02;;;11.70;90.30;;;;;;5051959;28;20516;-55
2023/03/25 09:28:50;;;;;;;8.60;1.58;;;11.70;90.30;;;;;;5041050;28;20022;-55
2023/03/25 09:31:16;;;;;;;5.25;1.33;;;11.70;90.30;;;;;;5041658;28;20044;-55
2023/03/25 09:33:41;;;;;;;17.92;2.00;;;11.80;90.30;;;;;;5038449;28;20026;-55
2023/03/25 09:36:07;;;;;;;30.15;2.70;;;11.80;90.30;;;;;;5042689;28;20030;-55
2023/03/25 09:38:33;;;;;;;24.35;2.67;;;11.80;90.30;;;;;;5037804;28;20133;-55
2023/03/25 09:41:00;;;;;;;31.70;4.35;;;11.80;90.40;;;;;;5043396;28;20068;-53
2023/03/25 09:44:01;;;;;;;51.38;6.05;;;11.80;90.50;;;;;;5042217;28;20045;-56
2023/03/25 09:46:27;;;;;;;38.60;5.00;;;11.90;90.60;;;;;;5041423;28;20021;-56
2023/03/25 09:48:52;;;;;;;36.35;4.53;;;11.90;90.60;;;;;;5039701;28;20029;-55
2023/03/25 09:51:23;;;;;;;51.47;7.15;;;12.00;90.60;;;;;;5038955;28;20389;-55
2023/03/25 09:53:58;;;;;;;68.53;6.88;;;12.00;90.70;;;;;;5039916;28;20026;-55
2023/03/25 09:56:25;;;;;;;59.72;6.85;;;12.00;90.80;;;;;;5040928;28;20081;-55
2023/03/25 09:59:12;;;;;;;86.38;7.88;;;12.00;90.90;;;;;;5040988;28;20089;-56
2023/03/25 10:02:12;;;;;;;88.88;9.55;;;12.10;90.90;;;;;;5038536;28;20057;-56
2023/03/25 10:04:49;;;;;;;49.15;5.97;;;12.10;91.00;;;;;;5034205;28;20207;-56
2023/03/25 10:07:27;;;;;;;67.20;6.75;;;12.20;90.90;;;;;;5042244;28;20051;-56
2023/03/25 10:10:05;;;;;;;59.67;7.20;;;12.20;90.90;;;;;;5058648;28;20038;-56
2023/03/25 10:12:59;;;;;;;84.38;8.93;;;12.20;90.60;;;;;;5035767;28;20040;-56
2023/03/25 10:15:37;;;;;;;78.22;8.25;;;12.20;90.60;;;;;;5037437;28;20044;-55
2023/03/25 10:18:17;;;;;;;96.55;10.65;;;12.30;90.70;;;;;;5041971;28;20037;-56
2023/03/25 10:20:56;;;;;;;132.00;12.88;;;12.40;90.80;;;;;;5046105;28;20064;-56
2023/03/25 10:23:29;;;;;;;101.55;12.85;;;12.40;90.90;;;;;;5060249;28;20041;-56
2023/03/25 10:26:11;;;;;;;109.65;13.55;;;12.50;90.90;;;;;;5042019;28;20034;-55
2023/03/25 10:28:42;;;;;;;135.93;15.32;;;12.50;90.90;;;;;;5057578;28;20061;-56
2023/03/25 10:31:11;;;;;;;121.53;12.90;;;12.60;90.90;;;;;;5055531;28;20100;-59
2023/03/25 10:33:40;;;;;;;138.93;14.80;;;12.60;91.00;;;;;;5044125;28;20040;-59
2023/03/25 10:36:09;;;;;;;126.75;16.13;;;12.70;91.00;;;;;;5054758;28;20061;-59
2023/03/25 10:38:34;;;;;;;142.95;15.07;;;12.70;90.90;;;;;;5036410;28;20033;-58
2023/03/25 10:41:26;;;;;;;147.88;14.18;;;12.70;91.00;;;;;;5038656;28;20269;-58
2023/03/25 10:43:52;;;;;;;181.75;18.65;;;12.80;91.10;;;;;;5038987;28;20075;-58
2023/03/25 10:46:23;;;;;;;150.43;16.27;;;12.90;91.00;;;;;;5043301;28;20025;-58
2023/03/25 10:48:49;;;;;;;142.68;15.20;;;12.90;91.00;;;;;;5036424;28;20096;-58
2023/03/25 10:51:17;;;;;;;197.68;20.55;;;13.00;90.90;;;;;;5031653;28;20033;-59
2023/03/25 10:53:45;;;;;;;196.38;20.88;;;13.00;90.90;;;;;;5077234;28;20117;-58
2023/03/25 10:56:34;;;;;;;175.27;20.67;;;13.00;91.10;;;;;;5040647;28;20056;-58
2023/03/25 10:59:03;;;;;;;196.90;20.63;;;13.10;91.10;;;;;;5057007;28;20089;-58
2023/03/25 11:01:39;;;;;;;200.68;18.63;;;13.20;91.30;;;;;;5040483;28;20128;-59
2023/03/25 11:04:06;;;;;;;164.75;18.77;;;13.20;91.30;;;;;;5040348;28;20036;-59
2023/03/25 11:06:39;;;;;;;230.15;22.77;;;13.20;91.10;;;;;;5032369;28;20022;-58
2023/03/25 11:09:24;;;;;;;192.38;22.40;;;13.30;91.20;;;;;;5056194;28;20068;-59
2023/03/25 11:11:49;;;;;;;218.85;21.80;;;13.30;91.20;;;;;;5038859;28;20021;-57
2023/03/25 11:14:16;;;;;;;201.93;22.63;;;13.40;91.20;;;;;;5042771;28;20032;-59
2023/03/25 11:16:54;;;;;;;166.18;20.10;;;13.40;91.20;;;;;;5024811;28;20042;-59
2023/03/25 11:19:24;;;;;;;194.93;22.02;;;13.50;91.10;;;;;;5040944;28;20022;-58
2023/03/25 11:21:53;;;;;;;198.77;21.63;;;13.50;91.20;;;;;;5057970;28;20028;-58
2023/03/25 11:24:18;;;;;;;215.75;23.48;;;13.50;91.00;;;;;;5044704;28;20121;-58
2023/03/25 11:26:47;;;;;;;169.75;22.20;;;13.50;91.00;;;;;;5030174;28;20034;-58
2023/03/25 11:29:14;;;;;;;206.55;22.40;;;13.60;91.00;;;;;;5060565;28;20036;-58
2023/03/25 11:31:41;;;;;;;189.60;21.80;;;13.60;91.00;;;;;;5030032;28;20037;-58
2023/03/25 11:34:19;;;;;;;196.15;22.38;;;13.60;91.00;;;;;;5039823;28;20025;-58
2023/03/25 11:36:54;;;;;;;191.57;20.15;;;13.70;90.90;;;;;;5045115;28;20025;-58
2023/03/25 11:39:23;;;;;;;143.57;16.60;;;13.60;90.90;;;;;;5035503;28;20099;-58
2023/03/25 11:41:48;;;;;;;209.57;21.95;;;13.70;90.80;;;;;;5041768;28;20404;-59
2023/03/25 11:44:28;;;;;;;159.90;19.42;;;13.70;90.70;;;;;;5007475;28;20029;-58
2023/03/25 11:46:55;;;;;;;214.15;21.75;;;13.70;90.70;;;;;;5024752;28;20053;-58
2023/03/25 11:49:21;;;;;;;225.05;23.95;;;13.70;90.80;;;;;;5014484;28;20029;-58
2023/03/25 11:51:49;;;;;;;188.82;21.17;;;13.80;90.80;;;;;;5051724;28;20044;-57
2023/03/25 11:54:15;;;;;;;223.32;23.40;;;13.80;90.70;;;;;;5059079;28;20036;-58
2023/03/25 11:56:41;;;;;;;212.70;22.73;;;13.90;90.80;;;;;;5044452;28;20034;-58
2023/03/25 11:59:09;;;;;;;165.23;19.65;;;13.90;90.70;;;;;;5039287;28;20467;-58
2023/03/25 12:01:40;;;;;;;195.85;21.58;;;13.90;90.60;;;;;;5053997;28;20041;-59
2023/03/25 12:04:11;;;;;;;196.45;20.95;;;13.90;90.50;;;;;;5026680;28;20029;-58
2023/03/25 12:06:36;;;;;;;189.38;20.23;;;14.00;90.30;;;;;;5042536;28;20070;-58
2023/03/25 12:09:06;;;;;;;183.38;19.90;;;14.00;90.20;;;;;;5043840;28;20486;-58
2023/03/25 12:11:46;;;;;;;144.27;16.35;;;14.10;90.10;;;;;;5042796;28;20032;-58
2023/03/25 12:14:22;;;;;;;197.98;21.05;;;14.20;89.70;;;;;;5042290;28;20144;-58
2023/03/25 12:17:03;;;;;;;163.23;17.85;;;14.20;89.50;;;;;;5031188;28;20159;-58
2023/03/25 12:19:52;;;;;;;167.90;17.38;;;14.20;89.20;;;;;;5040785;28;20108;-58
2023/03/25 12:22:18;;;;;;;216.80;22.55;;;14.30;88.70;;;;;;5041928;28;20032;-59
2023/03/25 12:24:53;;;;;;;154.65;17.50;;;14.30;89.00;;;;;;5042433;28;20029;-58
2023/03/25 12:27:37;;;;;;;188.05;19.13;;;14.30;88.60;;;;;;5041240;28;20202;-58
2023/03/25 12:30:06;;;;;;;159.50;17.45;;;14.40;88.30;;;;;;5042269;28;20029;-58
2023/03/25 12:32:37;;;;;;;163.95;16.60;;;14.40;87.90;;;;;;5052704;28;20062;-58
2023/03/25 12:35:13;;;;;;;195.60;22.23;;;14.50;87.70;;;;;;5040972;28;20026;-59
2023/03/25 12:38:09;;;;;;;144.55;16.98;;;14.50;87.90;;;;;;5040555;28;20040;-58
2023/03/25 12:40:40;;;;;;;208.98;21.50;;;14.50;87.90;;;;;;5069166;28;20052;-58
2023/03/25 12:43:21;;;;;;;245.43;25.88;;;14.50;87.90;;;;;;5033992;28;20040;-58
2023/03/25 12:46:08;;;;;;;162.93;19.08;;;14.50;88.00;;;;;;5041567;28;20025;-58
2023/03/25 12:48:39;;;;;;;150.93;16.42;;;14.50;87.60;;;;;;5067741;28;20033;-58
2023/03/25 12:51:43;;;;;;;121.82;12.98;;;14.60;86.70;;;;;;5041578;28;20044;-58